Address 0x5f167db27b8265efc3a943fe27e2ec14bc991433

 

Overview

Balance:
0.857499353889949277 BNB

BNB Value:
$188.92 (@ $220.32/BNB)

Token:
Txn Hash
Block
From
To
Value [Txn Fee]
0xc022636fa6e0a6b12f57e1c48e7d4ce5b4a7855e60e8ccf3d77a44b5b258f1bb53935732021-03-04 19:09:549 hrs 24 mins ago0x5f167db27b8265efc3a943fe27e2ec14bc991433OUT PancakeSwap: Router0 BNB0.0016740899
0x34ef77df56ebed7e10e04ed3f83e04c96c74b16b7f9967014631f298d434923b53931012021-03-04 18:46:189 hrs 47 mins ago0x5f167db27b8265efc3a943fe27e2ec14bc991433OUT PancakeSwap: Router0 BNB0.0003697494
0x981c4ea8ccd68000e444ec108fd7780fcb54d1ee44a7f770334b47fb5411279d53920832021-03-04 17:55:2410 hrs 38 mins ago0x5f167db27b8265efc3a943fe27e2ec14bc991433OUT PancakeSwap: Router23.5 BNB0.0016602467
0x7146d750636ff559169bdf546a0c687b965630760c60a2459b7d530465c854df53918742021-03-04 17:44:5710 hrs 49 mins agoBinance: Hot Wallet 2 IN 0x5f167db27b8265efc3a943fe27e2ec14bc99143324.15655846 BNB0.00021
0x2bc7267bf4e0e0e972c38f521074a46ce93dc72c4bd36166dfd21e75c2200ee453892992021-03-04 15:36:1212 hrs 57 mins ago0x5f167db27b8265efc3a943fe27e2ec14bc991433OUT PancakeSwap: Router0 BNB0.002436176
0x9959fb86ec09a194e88048c4853a67ae828395ae23ed152ed82223e596af5ad853891572021-03-04 15:29:0613 hrs 5 mins ago0x5f167db27b8265efc3a943fe27e2ec14bc991433OUT PancakeSwap: Router0 BNB0.001825366
0x4e91655e2638df8b9979e9fcf41fc56d8aa98845bc855a2a95fdbd9f9fcf0a0053890462021-03-04 15:23:3313 hrs 10 mins ago0x5f167db27b8265efc3a943fe27e2ec14bc991433OUT PancakeSwap: Router0 BNB0.0004480197
0x718f563b1bef96c8df7c89db0d6bf64a99e04927134aba16257b006493cdc4a853887172021-03-04 15:07:0613 hrs 27 mins ago0x5f167db27b8265efc3a943fe27e2ec14bc991433OUT PancakeSwap: Router0 BNB0.0023116496
0x4dc315cc2683863705807b95d48c8d2987af95e4e34174c8a41dbf3a1ac8e15653806552021-03-04 8:23:5820 hrs 10 mins ago0x5f167db27b8265efc3a943fe27e2ec14bc991433OUT PancakeSwap: Router0 BNB0.0018710053
0x3575013d6ef8e624f32492d4e041d909faaaf72056e3d995871829981753ddb753755672021-03-04 4:09:221 day 24 mins ago0x5f167db27b8265efc3a943fe27e2ec14bc991433OUT0xcb4c559f79b2c8a4a06dd72d7a9a1805d8806c302.2 BNB0.0002247
0x20f67daaf99eeabbc23ebbf876865600b86daa8e01e3e503f173ae0acdc2dce853755482021-03-04 4:08:251 day 25 mins ago0x5f167db27b8265efc3a943fe27e2ec14bc991433OUT PancakeSwap: Router0 BNB0.0014076083
0xb9a2fa18034e94c9975fae7213db7fed5dab8d4de026a3514cf6ecd439c48e1a53754192021-03-04 4:01:581 day 32 mins ago0x5f167db27b8265efc3a943fe27e2ec14bc991433OUT PancakeSwap: Router0 BNB0.0014074744
0xd166c8244df5a4a78a5ec256aefe8ca3894af36b7088dc91c903600a29a6234753754082021-03-04 4:01:251 day 32 mins ago0x5f167db27b8265efc3a943fe27e2ec14bc991433OUT 0x5a3010d4d8d3b5fb49f8b6e57fb9e48063f167000 BNB0.000485954
0xec00b2e3ee13810714539e0e88bd775d44030c129de5a560d6c7d9c01965182b53621832021-03-03 16:59:431 day 11 hrs ago0x5f167db27b8265efc3a943fe27e2ec14bc991433OUT PancakeSwap: Router0 BNB0.0018048896
0x1b64ee3246796402945ee4e634d2fd02adda0e360b102ce88503d0839d51f2fa53583312021-03-03 13:37:171 day 14 hrs ago0x5f167db27b8265efc3a943fe27e2ec14bc991433OUT PancakeSwap: Router0 BNB0.0018284251
0xa8983abc36048924c3f91b70876a9b5569966e86ee10d568393774b7422dcc7153353932021-03-02 17:17:492 days 11 hrs ago0x5f167db27b8265efc3a943fe27e2ec14bc991433OUT PancakeSwap: Router0 BNB0.0017558204
0x2a9183f1a016782d14756c6cc1b475cbb65ccc54273a0a351d754afaf48c6cee53352232021-03-02 17:09:192 days 11 hrs ago0x5f167db27b8265efc3a943fe27e2ec14bc991433OUT PancakeSwap: Router0 BNB0.0019379141
0x407f9d41d65ab1631a51ce12505d56725180e439d25c95f8a758b2544bb4c26e53351902021-03-02 17:07:402 days 11 hrs ago0x5f167db27b8265efc3a943fe27e2ec14bc991433OUT Bscex: BSCX Token0 BNB0.0004764282
0x0e7d46a02a3ffa7a12513b2eb4d43a92d8a6416fa35015a4b2a3b212c09ea6c453056482021-03-01 16:29:163 days 12 hrs ago0x5f167db27b8265efc3a943fe27e2ec14bc991433OUT PancakeSwap: Router0 BNB0.0020687756
0x0ffbdb03d61e4021b34ffb02906f454631986b36bbdb0b494547681edb48425853055072021-03-01 16:22:133 days 12 hrs ago0x5f167db27b8265efc3a943fe27e2ec14bc991433OUT Unifi Protocol DAO: UNFI Token0 BNB0.0004567123
0x95c0b948a1bf2b268b6778af8d2845259edf7ff868e26e3f9be3ad62da9f7b9252743282021-02-28 14:13:184 days 14 hrs ago0x5f167db27b8265efc3a943fe27e2ec14bc991433OUT PancakeSwap: Router19.35555110131819 BNB0.0013354671
0xa6c4f8a2e4a132ca237f1e280725dfe8bcf3a78dac62a8e1297b115d65e932b652741942021-02-28 14:06:354 days 14 hrs agoBinance: Hot Wallet IN 0x5f167db27b8265efc3a943fe27e2ec14bc99143319.21142854 BNB0.00021
0xf7e3c1b306bc76b81893739a6e95eae19fbb2677d7b165fe1d85085ce5b1961552445832021-02-27 13:22:175 days 15 hrs ago0x5f167db27b8265efc3a943fe27e2ec14bc991433OUT PancakeSwap: Router0 BNB0.0020589597
0x84a1b54300513e77a02acc336b51d0ed5bc6a48391534cf8741b59b006ed5e5352445732021-02-27 13:21:475 days 15 hrs ago0x5f167db27b8265efc3a943fe27e2ec14bc991433OUT 0x4131b87f74415190425ccd873048c708f80058230 BNB0.0004751549
0x5953e9e454769e79cfb66ae1c36b28b30f1079201e3a9adf44bd97407c3b71f752429722021-02-27 12:01:425 days 16 hrs ago0x5f167db27b8265efc3a943fe27e2ec14bc991433OUT PancakeSwap: Router0 BNB0.0016739663
[ Download CSV Export 
Latest 9 internal transactions
Parent Txn Hash Block From To Value
0x20f67daaf99eeabbc23ebbf876865600b86daa8e01e3e503f173ae0acdc2dce853755482021-03-04 4:08:251 day 25 mins ago PancakeSwap: Router0x5f167db27b8265efc3a943fe27e2ec14bc9914331.5 BNB
0xb9a2fa18034e94c9975fae7213db7fed5dab8d4de026a3514cf6ecd439c48e1a53754192021-03-04 4:01:581 day 32 mins ago PancakeSwap: Router0x5f167db27b8265efc3a943fe27e2ec14bc9914330.758248435115740362 BNB
0x95c0b948a1bf2b268b6778af8d2845259edf7ff868e26e3f9be3ad62da9f7b9252743282021-02-28 14:13:184 days 14 hrs ago PancakeSwap: Router0x5f167db27b8265efc3a943fe27e2ec14bc9914330.105403629906211534 BNB
0x132d93bf44450a02c2a31cc0d3653b9924af81fcf2593745b9f676bc422a8a5e51591252021-02-24 13:55:258 days 14 hrs ago PancakeSwap: Router0x5f167db27b8265efc3a943fe27e2ec14bc9914330.000357926223022157 BNB
0xa91b5b80c5a111fa6dc3011631e8aaac9dcade21709ccf7eca17005c88941a3551497462021-02-24 6:03:438 days 22 hrs ago PancakeSwap: Router0x5f167db27b8265efc3a943fe27e2ec14bc9914330.070810382417236253 BNB
0x7fce3ae6ab86e2dc4f1d76acdaec855bdb2f24b6bb6fb359a2ca4c813cf637f350607012021-02-21 3:01:4312 days 1 hr ago PancakeSwap: Router0x5f167db27b8265efc3a943fe27e2ec14bc9914330.016031674382860074 BNB
0x4c2c9780447f0361897f989069702a3c0f76bf594dedf427fbf8484a25414dc150606212021-02-21 2:57:4312 days 1 hr ago PancakeSwap: Router0x5f167db27b8265efc3a943fe27e2ec14bc9914330.069031670341735012 BNB
0xa23ee12ffd7de22543451c7cd123fb8544ea12369a03b8cb26b53a5daa3c7fb150313262021-02-20 2:01:3413 days 2 hrs ago PancakeSwap: Router0x5f167db27b8265efc3a943fe27e2ec14bc9914330.001839269265855149 BNB
0x545770b68aab8d4ae9b4bfc015d11506a80696d1d1b239b3193ef23b4bbc2c8049753982021-02-18 1:40:2315 days 2 hrs ago PancakeSwap: Router0x5f167db27b8265efc3a943fe27e2ec14bc9914330.049199099416739963 BNB
[ Download CSV Export 
Loading

Contract Name:
0 BNB

Compiler Version
0

Optimization Enabled:
0 BNB

Other Settings:
-NA-
Block Transaction Gas Used Reward
Age Block Fee Address BC Fee Address Voting Power Jailed Incoming
Block Uncle Number Difficulty Gas Used Reward
Loading
Loading
Make sure to use the "Vote Down" button for any spammy posts, and the "Vote Up" for interesting conversations.